createdAt,value
2023-05-14T00:01:29.287Z,2.55
2023-05-14T00:04:01.159Z,2.13
2023-05-14T00:06:40.963Z,2.55
2023-05-14T00:09:13.257Z,2.40
2023-05-14T00:11:44.866Z,5.38
2023-05-14T00:14:16.470Z,2.90
2023-05-14T00:16:48.020Z,3.17
2023-05-14T00:19:19.651Z,3.17
2023-05-14T00:21:53.995Z,2.25
2023-05-14T00:24:25.605Z,3.13
2023-05-14T00:26:57.172Z,2.92
2023-05-14T00:29:28.898Z,2.40
2023-05-14T00:32:00.540Z,3.38
2023-05-14T00:34:32.145Z,3.03
2023-05-14T00:37:03.769Z,2.95
2023-05-14T00:39:37.679Z,3.75
2023-05-14T00:42:12.308Z,2.28
2023-05-14T00:44:43.845Z,2.95
2023-05-14T00:47:15.966Z,4.30
2023-05-14T00:49:47.561Z,3.33
2023-05-14T00:52:19.728Z,3.53
2023-05-14T00:54:51.854Z,3.97
2023-05-14T00:57:23.458Z,3.83
2023-05-14T00:59:55.504Z,4.78
2023-05-14T01:02:27.148Z,4.75
2023-05-14T01:04:58.828Z,3.25
2023-05-14T01:07:44.234Z,4.43
2023-05-14T01:10:29.325Z,3.47
2023-05-14T01:13:31.949Z,3.83
2023-05-14T01:16:05.084Z,3.85
2023-05-14T01:18:37.200Z,4.85
2023-05-14T01:21:43.163Z,3.72
2023-05-14T01:24:14.769Z,3.47
2023-05-14T01:26:46.475Z,3.63
2023-05-14T01:29:29.150Z,3.17
2023-05-14T01:32:04.319Z,3.67
2023-05-14T01:34:39.568Z,3.30
2023-05-14T01:37:12.840Z,4.18
2023-05-14T01:39:45.772Z,4.30
2023-05-14T01:42:17.384Z,2.88
2023-05-14T01:44:49.233Z,3.45
2023-05-14T01:47:20.879Z,3.58
2023-05-14T01:49:52.485Z,3.90
2023-05-14T01:52:24.168Z,3.08
2023-05-14T01:54:58.453Z,3.38
2023-05-14T01:57:30.061Z,2.95
2023-05-14T02:00:02.141Z,3.10
2023-05-14T02:02:33.890Z,4.55
2023-05-14T02:05:07.162Z,4.65
2023-05-14T02:07:39.330Z,3.90
2023-05-14T02:10:11.421Z,3.22
2023-05-14T02:12:43.026Z,4.50
2023-05-14T02:15:14.563Z,3.22
2023-05-14T02:17:46.127Z,2.95
2023-05-14T02:20:17.829Z,3.95
2023-05-14T02:22:49.381Z,3.20
2023-05-14T02:25:20.967Z,2.65
2023-05-14T02:27:52.526Z,3.63
2023-05-14T02:30:24.348Z,4.78
2023-05-14T02:32:56.286Z,2.85
2023-05-14T02:35:27.909Z,4.53
2023-05-14T02:37:59.641Z,4.03
2023-05-14T02:40:31.355Z,3.80
2023-05-14T02:43:03.011Z,4.18
2023-05-14T02:45:34.608Z,3.70
2023-05-14T02:48:06.627Z,4.32
2023-05-14T02:50:38.201Z,3.78
2023-05-14T02:53:09.879Z,4.03
2023-05-14T02:55:41.425Z,3.70
2023-05-14T02:58:16.058Z,4.00
2023-05-14T03:00:47.693Z,3.10
2023-05-14T03:03:22.120Z,3.15
2023-05-14T03:05:56.476Z,3.35
2023-05-14T03:08:28.085Z,3.42
2023-05-14T03:10:59.636Z,4.15
2023-05-14T03:13:31.226Z,3.95
2023-05-14T03:16:02.725Z,3.53
2023-05-14T03:18:36.299Z,5.32
2023-05-14T03:21:09.106Z,4.22
2023-05-14T03:23:40.946Z,4.07
2023-05-14T03:26:12.548Z,4.22
2023-05-14T03:28:44.963Z,4.00
2023-05-14T03:31:16.620Z,3.65
2023-05-14T03:33:48.447Z,3.55
2023-05-14T03:36:23.064Z,3.35
2023-05-14T03:38:54.620Z,3.63
2023-05-14T03:41:26.228Z,4.15
2023-05-14T03:43:57.810Z,5.28
2023-05-14T03:46:30.671Z,4.43
2023-05-14T03:49:02.340Z,4.53
2023-05-14T03:51:34.032Z,4.00
2023-05-14T03:54:07.078Z,3.85
2023-05-14T03:56:38.680Z,4.93
2023-05-14T03:59:10.334Z,3.88
2023-05-14T04:01:42.039Z,3.85
2023-05-14T04:04:13.749Z,3.80
2023-05-14T04:06:45.444Z,3.75
2023-05-14T04:09:17.044Z,3.33
2023-05-14T04:11:48.589Z,3.85
2023-05-14T04:14:20.173Z,4.70
2023-05-14T04:16:51.814Z,3.97
2023-05-14T04:19:25.531Z,2.75
2023-05-14T04:21:57.138Z,3.45
2023-05-14T04:24:31.891Z,3.38
2023-05-14T04:27:04.297Z,3.00
2023-05-14T04:29:35.921Z,3.88
2023-05-14T04:32:07.805Z,3.00
2023-05-14T04:34:40.033Z,3.85
2023-05-14T04:37:11.662Z,3.30
2023-05-14T04:39:43.603Z,2.78
2023-05-14T04:42:15.190Z,2.72
2023-05-14T04:44:46.803Z,3.67
2023-05-14T04:47:18.454Z,2.97
2023-05-14T04:49:50.295Z,2.72
2023-05-14T04:52:24.332Z,3.03
2023-05-14T04:54:56.953Z,3.63
2023-05-14T04:57:28.549Z,2.45
2023-05-14T05:00:00.124Z,3.38
2023-05-14T05:02:56.706Z,3.25
2023-05-14T05:05:42.907Z,2.83
2023-05-14T05:08:14.485Z,2.50
2023-05-14T05:10:46.139Z,2.70
2023-05-14T05:13:17.820Z,2.53
2023-05-14T05:15:49.439Z,2.50
2023-05-14T05:18:21.244Z,3.17
2023-05-14T05:20:56.219Z,2.90
2023-05-14T05:25:59.255Z,2.72
2023-05-14T05:28:31.045Z,2.97
2023-05-14T05:31:02.946Z,3.75
2023-05-14T05:33:35.408Z,3.28
2023-05-14T05:36:09.715Z,3.10
2023-05-14T05:38:41.435Z,3.17
2023-05-14T05:41:13.065Z,3.28
2023-05-14T05:43:44.656Z,3.22
2023-05-14T05:46:16.414Z,3.20
2023-05-14T05:48:47.986Z,3.72
2023-05-14T05:51:19.656Z,3.95
2023-05-14T05:53:51.242Z,4.63
2023-05-14T05:56:22.809Z,4.65
2023-05-14T05:58:54.358Z,5.28
2023-05-14T06:01:26.724Z,4.05
2023-05-14T06:03:58.667Z,4.38
2023-05-14T06:06:30.791Z,3.90
2023-05-14T06:09:02.488Z,5.00
2023-05-14T06:11:34.112Z,3.97
2023-05-14T06:14:05.701Z,3.80
2023-05-14T06:16:44.484Z,4.40
2023-05-14T06:19:16.176Z,4.03
2023-05-14T06:21:47.891Z,3.88
2023-05-14T06:24:20.394Z,4.47
2023-05-14T06:26:52.057Z,3.83
2023-05-14T06:29:23.717Z,4.10
2023-05-14T06:32:03.095Z,6.22
2023-05-14T06:34:34.730Z,4.15
2023-05-14T06:37:07.135Z,3.78
2023-05-14T06:39:39.277Z,2.33
2023-05-14T06:42:10.847Z,4.15
2023-05-14T06:44:42.912Z,2.70
2023-05-14T06:47:14.538Z,2.88
2023-05-14T06:49:46.354Z,1.92
2023-05-14T06:52:17.969Z,1.98
2023-05-14T06:54:49.681Z,2.38
2023-05-14T06:57:21.363Z,2.75
2023-05-14T06:59:55.793Z,2.65
2023-05-14T07:02:29.688Z,2.70
2023-05-14T07:05:04.448Z,2.95
2023-05-14T07:07:36.029Z,2.45
2023-05-14T07:10:10.598Z,3.42
2023-05-14T07:12:42.394Z,2.25
2023-05-14T07:15:14.019Z,3.03
2023-05-14T07:17:45.682Z,2.58
2023-05-14T07:20:17.331Z,2.50
2023-05-14T07:22:49.002Z,2.63
2023-05-14T07:25:20.685Z,3.53
2023-05-14T07:27:52.303Z,3.13
2023-05-14T07:30:24.752Z,4.47
2023-05-14T07:32:56.848Z,4.35
2023-05-14T07:35:28.523Z,3.60
2023-05-14T07:38:00.352Z,3.97
2023-05-14T07:40:32.000Z,3.63
2023-05-14T07:43:03.628Z,5.70
2023-05-14T07:45:37.203Z,4.40
2023-05-14T07:48:09.090Z,4.47
2023-05-14T07:50:40.814Z,3.83
2023-05-14T07:53:15.615Z,4.32
2023-05-14T07:55:49.250Z,4.78
2023-05-14T07:58:20.824Z,3.63
2023-05-14T08:00:56.682Z,4.25
2023-05-14T08:03:28.479Z,4.30
2023-05-14T08:06:00.174Z,4.80
2023-05-14T08:08:31.863Z,4.30
2023-05-14T08:11:04.184Z,4.53
2023-05-14T08:13:38.112Z,3.80
2023-05-14T08:16:10.064Z,4.38
2023-05-14T08:18:44.044Z,3.17
2023-05-14T08:21:18.356Z,3.95
2023-05-14T08:23:49.883Z,5.05
2023-05-14T08:26:24.242Z,3.13
2023-05-14T08:28:55.862Z,3.25
2023-05-14T08:31:27.458Z,3.72
2023-05-14T08:33:59.194Z,3.60
2023-05-14T08:36:33.523Z,4.95
2023-05-14T08:39:09.094Z,5.95
2023-05-14T08:41:41.357Z,3.83
2023-05-14T08:44:20.896Z,3.42
2023-05-14T08:46:54.512Z,3.47
2023-05-14T08:49:43.086Z,3.63
2023-05-14T08:52:18.148Z,2.95
2023-05-14T08:54:53.646Z,4.22
2023-05-14T08:57:26.719Z,4.75
2023-05-14T08:59:58.550Z,3.85
2023-05-14T09:02:31.755Z,3.20
2023-05-14T09:05:04.289Z,3.13
2023-05-14T09:07:36.329Z,3.05
2023-05-14T09:10:09.182Z,3.78
2023-05-14T09:12:40.836Z,4.70
2023-05-14T09:15:13.226Z,3.40
2023-05-14T09:17:47.955Z,4.22
2023-05-14T09:20:22.593Z,3.85
2023-05-14T09:25:28.462Z,2.97
2023-05-14T09:28:00.149Z,3.05
2023-05-14T09:30:32.247Z,3.60
2023-05-14T09:33:04.350Z,3.97
2023-05-14T09:35:41.436Z,3.03
2023-05-14T09:38:16.074Z,3.90
2023-05-14T09:40:48.167Z,2.60
2023-05-14T09:43:19.945Z,2.35
2023-05-14T09:45:52.660Z,3.17
2023-05-14T09:48:26.240Z,2.83
2023-05-14T09:50:57.918Z,3.58
2023-05-14T09:53:32.727Z,2.45
2023-05-14T09:56:04.613Z,2.58
2023-05-14T09:58:36.307Z,3.42
2023-05-14T10:01:08.332Z,2.97
2023-05-14T10:03:40.571Z,2.90
2023-05-14T10:06:16.242Z,3.25
2023-05-14T10:08:49.402Z,3.22
2023-05-14T10:11:33.320Z,3.35
2023-05-14T10:14:09.216Z,2.97
2023-05-14T10:16:48.480Z,2.65
2023-05-14T10:19:25.575Z,2.60
2023-05-14T10:22:05.104Z,2.47
2023-05-14T10:24:39.125Z,3.65
2023-05-14T10:27:13.226Z,3.22
2023-05-14T10:29:55.561Z,3.22
2023-05-14T10:32:27.395Z,2.50
2023-05-14T10:35:01.853Z,3.03
2023-05-14T10:37:33.458Z,4.65
2023-05-14T10:40:10.056Z,3.72
2023-05-14T10:42:43.763Z,2.67
2023-05-14T10:45:15.961Z,2.83
2023-05-14T10:47:48.740Z,2.72
2023-05-14T10:50:21.109Z,3.03
2023-05-14T10:52:57.108Z,4.80
2023-05-14T10:55:28.714Z,3.47
2023-05-14T10:58:01.465Z,3.20
2023-05-14T11:00:36.758Z,3.17
2023-05-14T11:03:10.863Z,3.85
2023-05-14T11:05:42.488Z,2.53
2023-05-14T11:08:17.022Z,3.33
2023-05-14T11:10:49.394Z,2.35
2023-05-14T11:13:21.685Z,2.97
2023-05-14T11:15:53.655Z,2.65
2023-05-14T11:18:33.554Z,3.45
2023-05-14T11:21:07.644Z,2.38
2023-05-14T11:23:39.217Z,4.07
2023-05-14T11:26:11.390Z,2.80
2023-05-14T11:28:44.592Z,2.13
2023-05-14T11:31:19.587Z,3.10
2023-05-14T11:33:52.498Z,2.30
2023-05-14T11:36:24.151Z,4.95
2023-05-14T11:38:55.730Z,1.70
2023-05-14T11:41:31.380Z,3.28
2023-05-14T11:44:03.494Z,2.90
2023-05-14T11:46:35.212Z,2.35
2023-05-14T11:49:07.062Z,3.25
2023-05-14T11:51:38.629Z,2.15
2023-05-14T11:54:10.620Z,1.85
2023-05-14T11:56:42.249Z,1.83
2023-05-14T11:59:13.831Z,1.23
2023-05-14T12:01:50.720Z,1.20
2023-05-14T12:04:22.908Z,2.03
2023-05-14T12:06:57.681Z,1.67
2023-05-14T12:09:29.230Z,1.50
2023-05-14T12:12:11.967Z,2.75
2023-05-14T12:14:45.266Z,2.58
2023-05-14T12:17:22.156Z,1.67
2023-05-14T12:19:53.919Z,1.77
2023-05-14T12:22:25.583Z,2.15
2023-05-14T12:24:59.953Z,1.85
2023-05-14T12:27:31.596Z,2.30
2023-05-14T12:30:20.593Z,1.67
2023-05-14T12:32:53.714Z,1.88
2023-05-14T12:35:25.523Z,3.33
2023-05-14T12:37:57.326Z,2.70
2023-05-14T12:40:29.062Z,3.85
2023-05-14T12:43:00.692Z,2.38
2023-05-14T12:45:32.419Z,2.78
2023-05-14T12:48:04.532Z,2.30
2023-05-14T12:50:36.093Z,1.73
2023-05-14T12:53:07.677Z,2.95
2023-05-14T12:55:39.285Z,1.60
2023-05-14T12:58:10.878Z,1.90
2023-05-14T13:00:42.467Z,0.73
2023-05-14T13:03:14.238Z,1.52
2023-05-14T13:05:45.946Z,1.63
2023-05-14T13:08:18.022Z,1.42
2023-05-14T13:10:49.646Z,1.05
2023-05-14T13:13:24.400Z,2.20
2023-05-14T13:18:27.528Z,1.58
2023-05-14T13:21:04.360Z,1.77
2023-05-14T13:23:36.041Z,1.10
2023-05-14T13:26:07.786Z,2.13
2023-05-14T13:28:39.519Z,2.33
2023-05-14T13:31:13.230Z,1.77
2023-05-14T13:33:45.285Z,1.45
2023-05-14T13:36:16.988Z,2.67
2023-05-14T13:38:50.947Z,2.45
2023-05-14T13:41:22.675Z,1.75
2023-05-14T13:43:54.250Z,2.40
2023-05-14T13:46:26.327Z,0.82
2023-05-14T13:48:59.944Z,2.38
2023-05-14T13:51:31.529Z,1.88
2023-05-14T13:54:03.944Z,1.52
2023-05-14T13:56:35.608Z,1.67
2023-05-14T13:59:07.274Z,1.80
2023-05-14T14:01:38.942Z,1.77
2023-05-14T14:04:10.756Z,1.85
2023-05-14T14:06:44.679Z,2.22
2023-05-14T14:09:16.242Z,0.88
2023-05-14T14:11:48.513Z,1.73
2023-05-14T14:14:20.300Z,0.93
2023-05-14T14:16:53.004Z,2.05
2023-05-14T14:19:24.671Z,1.52
2023-05-14T14:21:58.336Z,0.55
2023-05-14T14:24:29.907Z,1.65
2023-05-14T14:27:02.433Z,0.88
2023-05-14T14:29:34.471Z,1.75
2023-05-14T14:32:06.715Z,0.98
2023-05-14T14:34:38.339Z,1.88
2023-05-14T14:37:10.055Z,1.52
2023-05-14T14:39:41.757Z,1.10
2023-05-14T14:42:13.447Z,1.65
2023-05-14T14:44:45.050Z,0.95
2023-05-14T14:47:16.617Z,0.93
2023-05-14T14:49:48.242Z,0.88
2023-05-14T14:52:19.901Z,0.50
2023-05-14T14:54:54.298Z,0.85
2023-05-14T14:57:26.740Z,0.65
2023-05-14T14:59:59.160Z,0.93
2023-05-14T15:02:31.605Z,0.68
2023-05-14T15:05:03.376Z,1.17
2023-05-14T15:07:34.977Z,0.63
2023-05-14T15:10:07.437Z,0.70
2023-05-14T15:12:39.139Z,1.48
2023-05-14T15:15:13.332Z,0.63
2023-05-14T15:17:47.991Z,2.83
2023-05-14T15:22:52.441Z,2.08
2023-05-14T15:25:25.311Z,1.30
2023-05-14T15:27:57.073Z,2.50
2023-05-14T15:30:28.774Z,3.55
2023-05-14T15:33:00.721Z,1.70
2023-05-14T15:35:34.846Z,2.13
2023-05-14T15:38:07.008Z,2.40
2023-05-14T15:40:38.628Z,2.70
2023-05-14T15:43:13.055Z,3.22
2023-05-14T15:45:49.098Z,4.03
2023-05-14T15:48:20.712Z,4.53
2023-05-14T15:50:59.136Z,2.95
2023-05-14T15:53:30.745Z,5.05
2023-05-14T15:56:02.911Z,4.13
2023-05-14T15:58:34.564Z,4.75
2023-05-14T16:01:06.087Z,4.93
2023-05-14T16:03:37.862Z,4.40
2023-05-14T16:06:10.165Z,4.38
2023-05-14T16:08:41.704Z,6.18
2023-05-14T16:11:13.753Z,4.88
2023-05-14T16:13:45.319Z,5.35
2023-05-14T16:16:17.000Z,3.28
2023-05-14T16:18:51.734Z,2.38
2023-05-14T16:21:23.396Z,0.28
2023-05-14T16:23:54.964Z,0.00
2023-05-14T16:26:26.629Z,0.00
2023-05-14T16:28:58.223Z,0.00
2023-05-14T16:31:31.481Z,0.00
2023-05-14T16:34:06.153Z,0.00
2023-05-14T16:36:37.790Z,0.10
2023-05-14T16:39:09.349Z,0.10
2023-05-14T16:41:41.125Z,0.00
2023-05-14T16:44:18.544Z,0.00
2023-05-14T16:46:50.844Z,0.00
2023-05-14T16:49:22.890Z,0.00
2023-05-14T16:51:57.505Z,0.00
2023-05-14T16:54:29.059Z,0.00
2023-05-14T16:57:00.649Z,0.00
2023-05-14T16:59:32.202Z,0.00
2023-05-14T17:02:04.036Z,0.00
2023-05-14T17:04:38.830Z,0.00
2023-05-14T17:07:11.583Z,0.00
2023-05-14T17:09:43.223Z,0.00
2023-05-14T17:12:14.870Z,0.00
2023-05-14T17:14:46.424Z,0.00
2023-05-14T17:17:18.728Z,0.00
2023-05-14T17:19:50.347Z,0.00
2023-05-14T17:22:21.937Z,0.08
2023-05-14T17:24:53.515Z,0.00
2023-05-14T17:27:26.153Z,0.20
2023-05-14T17:29:57.738Z,0.00
2023-05-14T17:32:30.073Z,0.00
2023-05-14T17:35:01.758Z,0.00
2023-05-14T17:37:33.412Z,0.00
2023-05-14T17:40:10.089Z,0.05
2023-05-14T17:42:41.753Z,0.30
2023-05-14T17:45:14.494Z,0.00
2023-05-14T17:47:49.310Z,0.00
2023-05-14T17:50:21.113Z,0.00
2023-05-14T17:52:53.343Z,0.47
2023-05-14T17:55:25.917Z,0.00
2023-05-14T17:57:57.773Z,0.00
2023-05-14T18:00:30.156Z,0.00
2023-05-14T18:03:02.420Z,0.00
2023-05-14T18:05:34.828Z,0.00
2023-05-14T18:08:06.537Z,0.00
2023-05-14T18:10:38.378Z,0.00
2023-05-14T18:13:10.050Z,0.00
2023-05-14T18:15:41.957Z,0.00
2023-05-14T18:18:17.116Z,0.00
2023-05-14T18:23:21.264Z,0.00
2023-05-14T18:25:52.975Z,0.00
2023-05-14T18:28:24.704Z,0.10
2023-05-14T18:30:59.489Z,0.00
2023-05-14T18:33:35.044Z,0.00
2023-05-14T18:36:06.754Z,0.00
2023-05-14T18:38:38.578Z,0.00
2023-05-14T18:41:10.244Z,0.00
2023-05-14T18:43:41.860Z,0.00
2023-05-14T18:46:16.229Z,0.00
2023-05-14T18:48:47.947Z,0.10
2023-05-14T18:51:19.531Z,0.15
2023-05-14T18:53:51.096Z,0.03
2023-05-14T18:56:22.679Z,0.10
2023-05-14T18:58:54.402Z,0.00
2023-05-14T19:01:26.211Z,0.15
2023-05-14T19:03:57.905Z,0.85
2023-05-14T19:06:29.614Z,0.13
2023-05-14T19:09:01.453Z,0.00
2023-05-14T19:11:33.067Z,0.10
2023-05-14T19:14:04.647Z,0.77
2023-05-14T19:16:38.702Z,0.00
2023-05-14T19:19:10.497Z,0.00
2023-05-14T19:21:42.168Z,0.05
2023-05-14T19:24:13.921Z,0.05
2023-05-14T19:26:47.689Z,0.40
2023-05-14T19:29:22.260Z,0.10
2023-05-14T19:31:53.888Z,0.50
2023-05-14T19:34:27.111Z,0.20
2023-05-14T19:36:58.830Z,0.40
2023-05-14T19:39:33.543Z,0.47
2023-05-14T19:42:05.772Z,0.38
2023-05-14T19:44:37.419Z,0.05
2023-05-14T19:47:09.137Z,0.60
2023-05-14T19:49:41.301Z,0.28
2023-05-14T19:52:13.087Z,0.13
2023-05-14T19:54:44.662Z,0.00
2023-05-14T19:57:19.430Z,0.45
2023-05-14T19:59:51.014Z,0.15
2023-05-14T20:02:22.712Z,0.70
2023-05-14T20:04:56.673Z,0.00
2023-05-14T20:07:29.445Z,0.00
2023-05-14T20:10:01.434Z,0.03
2023-05-14T20:12:35.863Z,0.10
2023-05-14T20:15:10.415Z,0.20
2023-05-14T20:17:42.546Z,0.35
2023-05-14T20:20:14.341Z,0.43
2023-05-14T20:22:45.957Z,0.47
2023-05-14T20:25:17.599Z,0.50
2023-05-14T20:27:49.602Z,1.20
2023-05-14T20:30:21.148Z,0.43
2023-05-14T20:32:52.955Z,0.38
2023-05-14T20:35:24.821Z,1.00
2023-05-14T20:37:56.647Z,0.20
2023-05-14T20:40:28.237Z,1.05
2023-05-14T20:43:07.081Z,0.85
2023-05-14T20:45:39.165Z,0.57
2023-05-14T20:48:12.868Z,0.20
2023-05-14T20:50:44.595Z,0.55
2023-05-14T20:53:16.203Z,0.20
2023-05-14T20:55:47.830Z,0.40
2023-05-14T20:58:20.445Z,0.75
2023-05-14T21:00:52.118Z,0.15
2023-05-14T21:03:23.879Z,0.50
2023-05-14T21:05:56.848Z,0.47
2023-05-14T21:08:28.914Z,0.82
2023-05-14T21:11:00.570Z,0.45
2023-05-14T21:13:32.600Z,0.40
2023-05-14T21:16:04.575Z,0.30
2023-05-14T21:18:36.650Z,0.22
2023-05-14T21:21:08.345Z,0.17
2023-05-14T21:23:39.973Z,0.17
2023-05-14T21:26:11.733Z,0.30
2023-05-14T21:28:43.420Z,0.20
2023-05-14T21:31:15.056Z,0.20
2023-05-14T21:33:46.742Z,0.20
2023-05-14T21:36:18.415Z,0.10
2023-05-14T21:38:50.059Z,0.20
2023-05-14T21:41:21.787Z,0.10
2023-05-14T21:43:55.530Z,0.03
2023-05-14T21:46:28.877Z,0.30
2023-05-14T21:49:02.719Z,0.30
2023-05-14T21:51:34.314Z,0.52
2023-05-14T21:54:07.244Z,0.50
2023-05-14T21:56:38.860Z,0.30
2023-05-14T21:59:11.177Z,0.20
2023-05-14T22:02:04.732Z,0.17
2023-05-14T22:04:37.838Z,0.28
2023-05-14T22:07:09.411Z,0.40
2023-05-14T22:09:44.080Z,0.20
2023-05-14T22:12:15.636Z,0.38
2023-05-14T22:14:47.252Z,0.25
2023-05-14T22:17:18.821Z,0.93
2023-05-14T22:19:50.412Z,0.00
2023-05-14T22:22:21.992Z,0.00
2023-05-14T22:24:53.752Z,0.00
2023-05-14T22:27:25.684Z,0.10
2023-05-14T22:29:58.441Z,0.60
2023-05-14T22:32:30.140Z,0.05
2023-05-14T22:35:01.991Z,0.00
2023-05-14T22:37:33.646Z,0.00
2023-05-14T22:40:07.733Z,0.00
2023-05-14T22:42:39.359Z,0.00
2023-05-14T22:45:11.355Z,0.00
2023-05-14T22:47:42.978Z,0.00
2023-05-14T22:50:15.221Z,0.00
2023-05-14T22:52:46.764Z,0.10
2023-05-14T22:55:18.379Z,0.10
2023-05-14T22:57:49.981Z,0.00
2023-05-14T23:00:21.745Z,0.15
2023-05-14T23:02:53.377Z,0.45
2023-05-14T23:05:25.379Z,0.03
2023-05-14T23:08:02.518Z,0.00
2023-05-14T23:10:35.602Z,0.20
2023-05-14T23:13:07.268Z,0.10
2023-05-14T23:15:38.957Z,0.25
2023-05-14T23:18:10.871Z,0.22
2023-05-14T23:20:42.561Z,0.00
2023-05-14T23:23:14.130Z,0.22
2023-05-14T23:25:45.799Z,0.00
2023-05-14T23:28:18.534Z,0.13
2023-05-14T23:30:50.119Z,0.10
2023-05-14T23:33:21.676Z,0.00
2023-05-14T23:35:53.274Z,0.13
2023-05-14T23:38:24.908Z,0.10
2023-05-14T23:40:56.493Z,0.47
2023-05-14T23:43:28.303Z,0.00
2023-05-14T23:46:00.539Z,0.17
2023-05-14T23:48:32.696Z,0.10
2023-05-14T23:51:04.266Z,0.03
2023-05-14T23:53:35.828Z,0.00
2023-05-14T23:56:10.108Z,0.00
2023-05-14T23:58:42.058Z,0.20
